Time;durP1;ratioP1;P1;durP2;ratioP2;P2;SDS_P1;SDS_P2;PMS_P1;PMS_P2;Temp;Humidity;BMP_temperature;BMP_pressure;BME280_temperature;BME280_humidity;BME280_pressure;Samples;Min_cycle;Max_cycle;Signal;HPM_P1;HPM_P2
2020/12/29 00:01:35;;;;;;;;;;;;;;;17.09;61.63;99145.06;5081439;28;1288;-80
2020/12/29 00:04:02;;;;;;;;;;;;;;;17.08;61.66;99142.56;5083004;28;838;-80
2020/12/29 00:06:28;;;;;;;;;;;;;;;17.11;61.59;99144.94;5080267;28;1258;-79
2020/12/29 00:08:55;;;;;;;;;;;;;;;17.09;61.63;99144.22;5069715;28;1291;-79
2020/12/29 00:11:21;;;;;;;;;;;;;;;17.09;61.46;99139.78;5087958;28;2045;-79
2020/12/29 00:13:50;;;;;;;;;;;;;;;17.05;61.45;99140.16;5088658;28;845;-79
2020/12/29 00:16:17;;;;;;;;;;;;;;;17.07;61.51;99146.97;5076484;28;1026;-80
2020/12/29 00:18:43;;;;;;;;;;;;;;;17.08;61.37;99137.28;5038832;28;1288;-79
2020/12/29 00:21:16;;;;;;;;;;;;;;;17.01;61.52;99147.44;5048511;28;1315;-80
2020/12/29 00:23:43;;;;;;;;;;;;;;;17.06;61.35;99141.81;5056885;28;1228;-79
2020/12/29 00:26:11;;;;;;;;;;;;;;;17.01;61.36;99146.59;5063654;28;1084;-80
2020/12/29 00:28:42;;;;;;;;;;;;;;;16.98;61.46;99142.41;5063823;28;1288;-77
2020/12/29 00:31:08;;;;;;;;;;;;;;;16.96;61.38;99154.00;5064084;28;1981;-79
2020/12/29 00:33:37;;;;;;;;;;;;;;;16.98;61.44;99144.19;5050044;28;1263;-80
2020/12/29 00:36:05;;;;;;;;;;;;;;;16.98;61.59;99149.44;5014954;28;1185;-79
2020/12/29 00:38:31;;;;;;;;;;;;;;;16.97;61.50;99145.97;5052081;28;1177;-79
2020/12/29 00:40:57;;;;;;;;;;;;;;;16.97;61.59;99145.97;5034097;28;1175;-80
2020/12/29 00:43:24;;;;;;;;;;;;;;;16.96;61.33;99149.56;5033365;28;1225;-79
2020/12/29 00:45:50;;;;;;;;;;;;;;;16.97;61.33;99139.84;5033582;28;1234;-80
2020/12/29 00:48:16;;;;;;;;;;;;;;;16.92;61.41;99145.47;5051512;28;1221;-79
2020/12/29 00:50:42;;;;;;;;;;;;;;;16.90;61.47;99145.56;5051245;28;1910;-81
2020/12/29 00:53:10;;;;;;;;;;;;;;;16.90;61.63;99144.75;5033626;28;1237;-78
2020/12/29 00:55:37;;;;;;;;;;;;;;;16.93;61.19;99140.09;5052171;28;758;-79
2020/12/29 00:58:03;;;;;;;;;;;;;;;16.90;61.56;99142.13;5033785;28;1358;-79
2020/12/29 01:00:30;;;;;;;;;;;;;;;16.89;61.68;99149.19;5033572;28;1337;-79
2020/12/29 01:02:56;;;;;;;;;;;;;;;16.87;61.30;99151.06;5052030;28;1280;-77
2020/12/29 01:05:22;;;;;;;;;;;;;;;16.89;61.60;99151.81;5051769;28;1051;-78
2020/12/29 01:07:48;;;;;;;;;;;;;;;16.87;61.50;99161.59;5052112;28;1258;-79
2020/12/29 01:10:14;;;;;;;;;;;;;;;16.82;61.49;99155.00;5033752;28;1906;-79
2020/12/29 01:12:41;;;;;;;;;;;;;;;16.82;61.38;99153.22;5033464;28;1382;-81
2020/12/29 01:15:07;;;;;;;;;;;;;;;16.83;61.39;99156.69;5051295;28;1042;-81
2020/12/29 01:17:33;;;;;;;;;;;;;;;16.79;61.62;99157.84;5016964;28;1257;-79
2020/12/29 01:19:59;;;;;;;;;;;;;;;16.81;61.44;99156.78;5033603;28;1097;-79
2020/12/29 01:22:33;;;;;;;;;;;;;;;16.83;61.28;99149.63;5049393;28;1294;-78
2020/12/29 01:24:59;;;;;;;;;;;;;;;16.78;61.60;99158.78;5051070;28;790;-78
2020/12/29 01:27:26;;;;;;;;;;;;;;;16.77;61.70;99155.34;5066770;28;1370;-79
2020/12/29 01:29:52;;;;;;;;;;;;;;;16.79;61.50;99149.97;5051103;28;1910;-80
2020/12/29 01:32:19;;;;;;;;;;;;;;;16.78;61.62;99154.38;5033148;28;1528;-78
2020/12/29 01:34:45;;;;;;;;;;;;;;;16.76;61.46;99148.41;5051210;28;769;-78
2020/12/29 01:37:11;;;;;;;;;;;;;;;16.73;61.53;99151.25;5051352;28;1394;-78
2020/12/29 01:39:37;;;;;;;;;;;;;;;16.78;61.41;99148.28;5032819;28;1235;-78
2020/12/29 01:42:03;;;;;;;;;;;;;;;16.75;61.41;99157.22;5050764;28;1491;-79
2020/12/29 01:44:29;;;;;;;;;;;;;;;16.75;61.38;99156.38;5050841;28;1139;-79
2020/12/29 01:46:56;;;;;;;;;;;;;;;16.78;61.38;99164.03;5050790;28;1272;-79
2020/12/29 01:49:22;;;;;;;;;;;;;;;16.72;61.46;99162.72;5050803;28;825;-78
2020/12/29 01:51:48;;;;;;;;;;;;;;;16.72;61.38;99161.88;5050882;28;1346;-79
2020/12/29 01:54:14;;;;;;;;;;;;;;;16.70;61.39;99164.63;5050405;28;822;-78
2020/12/29 01:56:41;;;;;;;;;;;;;;;16.73;61.42;99158.28;5032782;28;1272;-78
2020/12/29 01:59:11;;;;;;;;;;;;;;;16.73;61.53;99174.91;5050855;28;1333;-78
2020/12/29 02:01:41;;;;;;;;;;;;;;;16.72;61.20;99178.50;5050614;28;1374;-78
2020/12/29 02:04:11;;;;;;;;;;;;;;;16.67;61.21;99178.00;5050711;28;826;-78
2020/12/29 02:06:38;;;;;;;;;;;;;;;16.70;61.52;99176.94;5050607;28;1390;-78
2020/12/29 02:09:05;;;;;;;;;;;;;;;16.67;61.44;99190.28;5032615;28;1307;-78
2020/12/29 02:11:32;;;;;;;;;;;;;;;16.67;61.34;99185.03;5050495;28;1981;-79
2020/12/29 02:13:58;;;;;;;;;;;;;;;16.65;61.49;99190.41;5032454;28;1358;-79
2020/12/29 02:16:24;;;;;;;;;;;;;;;16.65;61.49;99187.78;5016193;28;1351;-79
2020/12/29 02:18:50;;;;;;;;;;;;;;;16.68;61.32;99187.56;5050421;28;1064;-79
2020/12/29 02:21:17;;;;;;;;;;;;;;;16.64;61.51;99186.09;5015854;28;1260;-79
2020/12/29 02:23:43;;;;;;;;;;;;;;;16.62;61.61;99176.66;5050137;28;1308;-80
2020/12/29 02:26:28;;;;;;;;;;;;;;;16.61;61.59;99180.22;5050710;28;1359;-78
2020/12/29 02:28:58;;;;;;;;;;;;;;;16.63;61.58;99187.03;5032146;28;1141;-78
2020/12/29 02:31:25;;;;;;;;;;;;;;;16.62;61.46;99192.44;5049978;28;1910;-78
2020/12/29 02:33:51;;;;;;;;;;;;;;;16.63;61.38;99189.66;5050287;28;806;-81
2020/12/29 02:36:17;;;;;;;;;;;;;;;16.59;61.62;99192.66;5049811;28;1091;-81
2020/12/29 02:38:44;;;;;;;;;;;;;;;16.59;61.62;99190.03;5032053;28;802;-79
2020/12/29 02:41:11;;;;;;;;;;;;;;;16.59;61.58;99193.50;5031779;28;1258;-79
2020/12/29 02:43:38;;;;;;;;;;;;;;;16.56;61.59;99201.59;5049899;28;1543;-78
2020/12/29 02:46:04;;;;;;;;;;;;;;;16.58;61.67;99197.06;5049875;28;997;-78
2020/12/29 02:48:30;;;;;;;;;;;;;;;16.57;61.84;99189.28;5049559;28;1319;-79
2020/12/29 02:50:56;;;;;;;;;;;;;;;16.57;61.63;99194.53;5031723;28;1918;-79
2020/12/29 02:53:23;;;;;;;;;;;;;;;16.57;61.70;99194.53;5031697;28;1169;-78
2020/12/29 02:55:49;;;;;;;;;;;;;;;16.55;61.63;99196.44;5049674;28;1048;-78
2020/12/29 02:58:15;;;;;;;;;;;;;;;16.54;61.62;99195.59;5049527;28;1216;-78
2020/12/29 03:00:41;;;;;;;;;;;;;;;16.55;61.72;99191.19;5048791;28;821;-78
2020/12/29 03:03:07;;;;;;;;;;;;;;;16.55;61.72;99191.19;5049729;28;1236;-78
2020/12/29 03:05:34;;;;;;;;;;;;;;;16.54;61.57;99186.81;5049642;28;836;-78
2020/12/29 03:08:01;;;;;;;;;;;;;;;16.53;61.61;99195.69;5031293;28;1278;-79
2020/12/29 03:10:27;;;;;;;;;;;;;;;16.51;61.35;99182.63;5031194;28;1914;-78
2020/12/29 03:12:53;;;;;;;;;;;;;;;16.51;61.61;99189.69;5049501;28;1296;-77
2020/12/29 03:15:19;;;;;;;;;;;;;;;16.51;61.58;99187.06;5031070;28;1443;-76
2020/12/29 03:17:45;;;;;;;;;;;;;;;16.51;61.71;99185.25;5049644;28;1290;-77
2020/12/29 03:20:11;;;;;;;;;;;;;;;16.44;61.43;99184.03;5031500;28;832;-78
2020/12/29 03:22:37;;;;;;;;;;;;;;;16.50;61.54;99191.50;5014849;28;1304;-77
2020/12/29 03:25:04;;;;;;;;;;;;;;;16.48;61.44;99188.13;5031132;28;1261;-77
2020/12/29 03:27:30;;;;;;;;;;;;;;;16.46;61.65;99184.78;5049492;28;1359;-77
2020/12/29 03:29:56;;;;;;;;;;;;;;;16.46;61.54;99178.66;5030964;28;2399;-76
2020/12/29 03:32:22;;;;;;;;;;;;;;;16.46;61.35;99184.78;5049188;28;1360;-77
2020/12/29 03:34:48;;;;;;;;;;;;;;;16.46;61.35;99184.78;5049270;28;1134;-76
2020/12/29 03:37:16;;;;;;;;;;;;;;;16.45;61.37;99180.44;5047582;28;1377;-77
2020/12/29 03:39:43;;;;;;;;;;;;;;;16.45;61.32;99169.94;5031090;28;1344;-77
2020/12/29 03:42:09;;;;;;;;;;;;;;;16.41;61.25;99169.31;5048891;28;1512;-77
2020/12/29 03:44:36;;;;;;;;;;;;;;;16.43;61.48;99166.59;5048927;28;763;-78
2020/12/29 03:47:03;;;;;;;;;;;;;;;16.40;61.57;99167.66;5049038;28;1264;-77
2020/12/29 03:49:29;;;;;;;;;;;;;;;16.41;61.56;99176.38;5049086;28;1123;-78
2020/12/29 03:51:55;;;;;;;;;;;;;;;16.41;61.63;99168.50;5030737;28;1914;-78
2020/12/29 03:54:21;;;;;;;;;;;;;;;16.41;61.58;99171.13;5030878;28;1282;-78
2020/12/29 03:56:48;;;;;;;;;;;;;;;16.40;61.40;99174.69;5030921;28;1306;-76
2020/12/29 03:59:14;;;;;;;;;;;;;;;16.36;61.38;99175.84;5048712;28;841;-77
2020/12/29 04:01:43;;;;;;;;;;;;;;;16.37;61.33;99178.38;5030816;28;1280;-76
2020/12/29 04:04:09;;;;;;;;;;;;;;;16.38;61.54;99177.41;5030742;28;802;-79
2020/12/29 04:06:36;;;;;;;;;;;;;;;16.36;61.52;99179.31;5030533;28;1288;-80
2020/12/29 04:09:02;;;;;;;;;;;;;;;16.36;61.51;99178.47;5064114;28;771;-79
2020/12/29 04:11:29;;;;;;;;;;;;;;;16.34;61.39;99183.00;5031681;28;2011;-80
2020/12/29 04:13:57;;;;;;;;;;;;;;;16.35;61.70;99182.88;5052582;28;806;-79
2020/12/29 04:16:23;;;;;;;;;;;;;;;16.35;61.58;99184.69;5034284;28;1280;-80
2020/12/29 04:18:50;;;;;;;;;;;;;;;16.36;61.40;99192.47;5052314;28;1127;-79
2020/12/29 04:21:18;;;;;;;;;;;;;;;16.35;61.47;99184.69;5052290;28;1135;-80
2020/12/29 04:23:44;;;;;;;;;;;;;;;16.37;61.53;99193.31;5034296;28;1178;-80
2020/12/29 04:26:11;;;;;;;;;;;;;;;16.33;61.44;99190.06;5052406;28;1201;-79
2020/12/29 04:28:38;;;;;;;;;;;;;;;16.32;61.49;99196.25;5052428;28;1296;-79
2020/12/29 04:31:05;;;;;;;;;;;;;;;16.31;61.48;99194.59;5052509;28;1911;-79
2020/12/29 04:33:32;;;;;;;;;;;;;;;16.31;61.66;99206.88;5034434;28;1173;-79
2020/12/29 04:35:58;;;;;;;;;;;;;;;16.31;61.53;99209.50;5052080;28;924;-78
2020/12/29 04:38:24;;;;;;;;;;;;;;;16.26;61.50;99198.50;5050782;28;1273;-78
2020/12/29 04:40:52;;;;;;;;;;;;;;;16.30;61.40;99210.44;5052142;28;912;-77
2020/12/29 04:43:19;;;;;;;;;;;;;;;16.27;61.51;99203.63;5034302;28;1625;-77
2020/12/29 04:45:45;;;;;;;;;;;;;;;16.28;61.52;99194.81;5034055;28;1366;-78
2020/12/29 04:48:12;;;;;;;;;;;;;;;16.28;61.54;99201.84;5052024;28;1216;-78
2020/12/29 04:50:39;;;;;;;;;;;;;;;16.27;61.32;99197.53;5033758;28;1981;-79
2020/12/29 04:53:07;;;;;;;;;;;;;;;16.24;61.40;99195.97;5033833;28;1385;-79
2020/12/29 04:55:35;;;;;;;;;;;;;;;16.27;61.62;99202.78;5051896;28;789;-78
2020/12/29 04:58:01;;;;;;;;;;;;;;;16.25;61.56;99202.91;5052072;28;1233;-78
2020/12/29 05:00:28;;;;;;;;;;;;;;;16.27;61.53;99202.78;5051876;28;791;-78
2020/12/29 05:02:55;;;;;;;;;;;;;;;16.23;61.38;99206.59;5033827;28;1252;-77
2020/12/29 05:05:25;;;;;;;;;;;;;;;16.24;61.41;99198.59;5066709;28;814;-77
2020/12/29 05:07:51;;;;;;;;;;;;;;;16.25;61.45;99199.44;5033880;28;1225;-76
2020/12/29 05:10:17;;;;;;;;;;;;;;;16.24;61.31;99203.00;5034009;28;1926;-78
2020/12/29 05:12:50;;;;;;;;;;;;;;;16.21;61.51;99190.91;5051441;28;1319;-76
2020/12/29 05:15:20;;;;;;;;;;;;;;;16.22;61.29;99189.97;5033588;28;814;-78
2020/12/29 05:17:47;;;;;;;;;;;;;;;16.19;61.32;99184.09;5017279;28;1413;-76
2020/12/29 05:20:20;;;;;;;;;;;;;;;16.20;61.45;99189.22;5051305;28;751;-76
2020/12/29 05:22:49;;;;;;;;;;;;;;;16.19;61.37;99179.69;5051138;28;1347;-76
2020/12/29 05:25:17;;;;;;;;;;;;;;;16.22;61.14;99176.84;5033719;28;862;-77
2020/12/29 05:27:44;;;;;;;;;;;;;;;16.22;61.05;99168.97;5051656;28;1248;-79
2020/12/29 05:30:10;;;;;;;;;;;;;;;16.21;61.34;99169.06;5033392;28;1976;-78
2020/12/29 05:32:39;;;;;;;;;;;;;;;16.19;61.55;99184.94;5051729;28;1240;-78
2020/12/29 05:35:10;;;;;;;;;;;;;;;16.17;61.39;99176.31;5051535;28;922;-79
2020/12/29 05:37:37;;;;;;;;;;;;;;;16.16;61.28;99171.19;5033456;28;1162;-78
2020/12/29 05:40:22;;;;;;;;;;;;;;;16.15;61.58;99178.22;5051635;28;1195;-77
2020/12/29 05:42:48;;;;;;;;;;;;;;;16.15;61.18;99182.63;5018612;28;1486;-77
2020/12/29 05:45:15;;;;;;;;;;;;;;;16.16;61.27;99179.06;4993843;28;1327;-77
2020/12/29 05:47:41;;;;;;;;;;;;;;;16.14;61.25;99188.84;5011180;28;1229;-78
2020/12/29 05:50:13;;;;;;;;;;;;;;;16.14;61.13;99180.97;5041585;28;1914;-79
2020/12/29 05:52:42;;;;;;;;;;;;;;;16.13;61.22;99190.63;5011191;28;1326;-79
2020/12/29 05:55:09;;;;;;;;;;;;;;;16.15;61.49;99193.13;5009756;28;1354;-79
2020/12/29 05:57:35;;;;;;;;;;;;;;;16.13;61.50;99201.13;5020556;28;1611;-79
2020/12/29 06:00:03;;;;;;;;;;;;;;;16.15;61.65;99214.16;5019788;28;1255;-79
2020/12/29 06:02:31;;;;;;;;;;;;;;;16.13;61.32;99227.41;5012820;28;1237;-81
2020/12/29 06:04:57;;;;;;;;;;;;;;;16.14;61.37;99238.75;5030923;28;1185;-80
2020/12/29 06:07:25;;;;;;;;;;;;;;;16.13;61.25;99234.44;5027658;28;1335;-79
2020/12/29 06:10:12;;;;;;;;;;;;;;;16.10;61.13;99242.53;5010577;28;1906;-79
2020/12/29 06:12:55;;;;;;;;;;;;;;;16.10;61.60;99258.31;5009011;28;1280;-78
2020/12/29 06:15:24;;;;;;;;;;;;;;;16.09;61.52;99251.34;5025808;28;1844;-80
2020/12/29 06:17:53;;;;;;;;;;;;;;;16.09;61.45;99252.19;5010477;28;1316;-79
2020/12/29 06:20:19;;;;;;;;;;;;;;;16.08;61.30;99250.50;5010542;28;858;-79
2020/12/29 06:22:50;;;;;;;;;;;;;;;16.08;61.36;99247.06;5022956;28;1340;-81
2020/12/29 06:25:17;;;;;;;;;;;;;;;16.08;61.30;99242.63;5028855;28;980;-80
2020/12/29 06:27:51;;;;;;;;;;;;;;;16.07;61.32;99245.38;5028584;28;1395;-80
2020/12/29 06:30:20;;;;;;;;;;;;;;;16.07;61.18;99242.75;5030088;28;1914;-79
2020/12/29 06:32:47;;;;;;;;;;;;;;;16.05;61.27;99227.06;5029712;28;1240;-80
2020/12/29 06:35:14;;;;;;;;;;;;;;;16.05;61.29;99224.47;5029137;28;845;-80
2020/12/29 06:37:51;;;;;;;;;;;;;;;16.07;61.09;99219.09;5029915;28;1281;-80
2020/12/29 06:40:20;;;;;;;;;;;;;;;16.03;61.20;99204.50;5028526;28;856;-79
2020/12/29 06:42:46;;;;;;;;;;;;;;;16.02;61.30;99203.66;5039202;28;1509;-80
2020/12/29 06:45:12;;;;;;;;;;;;;;;16.02;61.25;99200.22;5049777;28;896;-77
2020/12/29 06:47:40;;;;;;;;;;;;;;;16.02;61.07;99187.09;5048585;28;1275;-78
2020/12/29 06:50:25;;;;;;;;;;;;;;;16.02;61.11;99192.34;5049991;28;1981;-80
2020/12/29 06:53:05;;;;;;;;;;;;;;;16.01;61.04;99190.66;5049632;28;1241;-81
2020/12/29 06:55:35;;;;;;;;;;;;;;;15.99;61.06;99177.59;5048217;28;747;-80
2020/12/29 06:58:02;;;;;;;;;;;;;;;15.99;60.96;99182.84;5048149;28;1335;-80
2020/12/29 07:00:31;;;;;;;;;;;;;;;16.00;61.45;99184.53;5048107;28;1368;-79
2020/12/29 07:02:57;;;;;;;;;;;;;;;15.99;61.13;99206.50;5047682;28;1252;-79
2020/12/29 07:05:25;;;;;;;;;;;;;;;15.98;61.28;99215.34;5049357;28;1122;-79
2020/12/29 07:07:54;;;;;;;;;;;;;;;15.97;61.11;99194.41;5047700;28;1225;-79
2020/12/29 07:10:21;;;;;;;;;;;;;;;15.99;60.75;99197.81;5049610;28;1909;-78
2020/12/29 07:12:51;;;;;;;;;;;;;;;15.98;60.87;99201.38;5047563;28;1224;-81
2020/12/29 07:15:26;;;;;;;;;;;;;;;15.96;60.72;99201.47;5047624;28;1259;-80
2020/12/29 07:17:53;;;;;;;;;;;;;;;15.98;60.82;99202.22;5048984;28;1280;-81
2020/12/29 07:20:21;;;;;;;;;;;;;;;15.99;60.82;99203.06;5047889;28;1083;-80
2020/12/29 07:22:54;;;;;;;;;;;;;;;15.96;60.85;99219.03;5031379;28;1298;-82
2020/12/29 07:25:22;;;;;;;;;;;;;;;15.96;60.98;99208.53;5049127;28;763;-82
2020/12/29 07:27:50;;;;;;;;;;;;;;;15.95;61.05;99217.34;5049154;28;1307;-81
2020/12/29 07:30:16;;;;;;;;;;;;;;;15.95;60.91;99202.41;5047280;28;1923;-79
2020/12/29 07:32:42;;;;;;;;;;;;;;;15.93;61.00;99204.28;5048847;28;1232;-81
2020/12/29 07:35:08;;;;;;;;;;;;;;;15.92;60.85;99192.13;5049199;28;1040;-80
2020/12/29 07:37:35;;;;;;;;;;;;;;;16.03;60.98;99194.00;5048635;28;1241;-79
2020/12/29 07:40:02;;;;;;;;;;;;;;;16.02;60.90;99185.28;5047663;28;1197;-79
2020/12/29 07:42:28;;;;;;;;;;;;;;;15.98;60.82;99194.34;5057059;28;1434;-81
2020/12/29 07:44:54;;;;;;;;;;;;;;;15.99;61.14;99192.56;5069060;28;1239;-78
2020/12/29 07:47:20;;;;;;;;;;;;;;;15.99;60.85;99206.50;5068639;28;1217;-79
2020/12/29 07:49:47;;;;;;;;;;;;;;;15.98;60.98;99202.22;5050698;28;1455;-78
2020/12/29 07:52:23;;;;;;;;;;;;;;;15.96;60.94;99187.50;5050414;28;1977;-76
2020/12/29 07:55:03;;;;;;;;;;;;;;;15.98;60.94;99196.13;5050476;28;1282;-76
2020/12/29 07:57:30;;;;;;;;;;;;;;;15.96;61.17;99198.00;5069068;28;1274;-77
2020/12/29 08:00:04;;;;;;;;;;;;;;;15.99;61.01;99203.06;5058213;28;1359;-79
2020/12/29 08:02:30;;;;;;;;;;;;;;;15.97;60.91;99184.75;5071267;28;1276;-78
2020/12/29 08:04:59;;;;;;;;;;;;;;;15.98;60.87;99202.22;5035619;28;1193;-76
2020/12/29 08:07:25;;;;;;;;;;;;;;;15.96;60.80;99192.75;5051211;28;1285;-76
2020/12/29 08:10:06;;;;;;;;;;;;;;;15.95;60.77;99214.72;5051014;28;1914;-75
2020/12/29 08:12:33;;;;;;;;;;;;;;;15.93;61.06;99209.53;5051116;28;1236;-77
2020/12/29 08:15:00;;;;;;;;;;;;;;;15.95;60.72;99218.19;5034840;28;1308;-77
2020/12/29 08:17:28;;;;;;;;;;;;;;;15.95;60.89;99217.34;5068649;28;1244;-77
2020/12/29 08:19:58;;;;;;;;;;;;;;;15.98;60.74;99233.72;5069220;28;1226;-75
2020/12/29 08:22:25;;;;;;;;;;;;;;;15.96;61.14;99232.97;5068794;28;1266;-79
2020/12/29 08:24:52;;;;;;;;;;;;;;;15.94;61.15;99232.25;5051040;28;1208;-76
2020/12/29 08:27:22;;;;;;;;;;;;;;;15.94;61.00;99253.25;5068927;28;1287;-76
2020/12/29 08:29:48;;;;;;;;;;;;;;;15.95;61.01;99261.97;5069167;28;1083;-78
2020/12/29 08:32:17;;;;;;;;;;;;;;;15.92;61.21;99267.44;5069007;28;1934;-79
2020/12/29 08:34:45;;;;;;;;;;;;;;;15.94;61.29;99281.28;5069176;28;924;-75
2020/12/29 08:37:13;;;;;;;;;;;;;;;15.92;61.28;99284.03;5068419;28;1217;-73
2020/12/29 08:39:54;;;;;;;;;;;;;;;15.93;61.23;99290.13;5050715;28;1183;-76
2020/12/29 08:42:21;;;;;;;;;;;;;;;15.92;61.31;99319.97;5050349;28;1591;-76
2020/12/29 08:44:47;;;;;;;;;;;;;;;15.91;61.11;99320.91;5050277;28;1148;-76
2020/12/29 08:47:17;;;;;;;;;;;;;;;15.90;61.22;99319.25;5050852;28;1314;-76
2020/12/29 08:49:43;;;;;;;;;;;;;;;15.90;61.57;99324.50;5068458;28;1051;-76
2020/12/29 08:52:10;;;;;;;;;;;;;;;15.92;61.28;99328.69;5067869;28;1902;-78
2020/12/29 08:54:37;;;;;;;;;;;;;;;15.90;61.25;99324.50;5068828;28;1071;-79
2020/12/29 08:57:05;;;;;;;;;;;;;;;15.89;61.31;99333.31;5069100;28;1286;-79
2020/12/29 08:59:36;;;;;;;;;;;;;;;16.00;61.20;99338.66;5054184;28;1459;-72
2020/12/29 09:02:27;;;;;;;;;;;;;;;15.53;52.45;99342.69;5071616;28;1299;-74
2020/12/29 09:04:59;;;;;;;;;;;;;;;15.41;52.83;99342.59;5069786;28;1504;-75
2020/12/29 09:07:25;;;;;;;;;;;;;;;15.69;55.22;99342.50;5057279;28;1350;-73
2020/12/29 09:09:51;;;;;;;;;;;;;;;15.77;59.55;99358.59;5051405;28;1030;-75
2020/12/29 09:12:22;;;;;;;;;;;;;;;15.79;60.03;99364.56;5051563;28;1951;-73
2020/12/29 09:14:53;;;;;;;;;;;;;;;15.76;59.59;99360.38;5033494;28;1128;-74
2020/12/29 09:17:19;;;;;;;;;;;;;;;15.76;59.54;99368.25;5033357;28;1286;-73
2020/12/29 09:20:07;;;;;;;;;;;;;;;15.81;57.25;99375.81;5067122;28;1145;-69
2020/12/29 09:22:34;;;;;;;;;;;;;;;16.03;57.86;99369.97;5071156;28;1307;-74
2020/12/29 09:25:00;;;;;;;;;;;;;;;16.19;57.49;99378.53;5071072;28;1087;-72
2020/12/29 09:27:30;;;;;;;;;;;;;;;16.10;58.00;99374.72;5061770;28;1244;-72
2020/12/29 09:29:57;;;;;;;;;;;;;;;16.13;58.97;99381.56;5051390;28;1090;-71
2020/12/29 09:32:24;;;;;;;;;;;;;;;16.25;58.77;99372.84;5051190;28;1988;-70
2020/12/29 09:34:50;;;;;;;;;;;;;;;16.32;57.98;99353.91;5032929;28;1034;-69
2020/12/29 09:37:17;;;;;;;;;;;;;;;16.47;58.25;99367.81;5056673;28;1551;-69
2020/12/29 09:39:44;;;;;;;;;;;;;;;16.55;58.27;99365.53;5064545;28;1051;-72
2020/12/29 09:42:10;;;;;;;;;;;;;;;16.82;57.73;99353.06;5055214;28;1668;-71
2020/12/29 09:44:37;;;;;;;;;;;;;;;16.91;57.78;99357.69;5061649;28;1071;-73
2020/12/29 09:47:03;;;;;;;;;;;;;;;17.10;57.38;99359.00;5078799;28;1299;-73
2020/12/29 09:49:31;;;;;;;;;;;;;;;17.24;57.32;99353.59;5035053;28;1421;-75
2020/12/29 09:51:59;;;;;;;;;;;;;;;17.26;57.47;99346.44;5085347;28;2010;-74
2020/12/29 09:54:28;;;;;;;;;;;;;;;17.40;57.23;99346.25;5071866;28;1172;-72
2020/12/29 09:56:55;;;;;;;;;;;;;;;17.46;57.16;99348.44;5054610;28;1338;-79
2020/12/29 09:59:22;;;;;;;;;;;;;;;17.53;56.92;99357.59;5044337;28;1339;-74
2020/12/29 10:01:49;;;;;;;;;;;;;;;17.56;56.84;99349.50;5048983;28;1272;-74
2020/12/29 10:04:17;;;;;;;;;;;;;;;17.59;57.10;99349.28;5048408;28;866;-77
2020/12/29 10:06:43;;;;;;;;;;;;;;;17.70;57.19;99351.09;5019612;28;1398;-78
2020/12/29 10:09:10;;;;;;;;;;;;;;;17.71;57.16;99352.78;5050755;28;1296;-76
2020/12/29 10:11:39;;;;;;;;;;;;;;;17.72;57.06;99339.47;5068793;28;1977;-79
2020/12/29 10:14:05;;;;;;;;;;;;;;;17.73;56.97;99351.72;5069601;28;802;-79
2020/12/29 10:16:35;;;;;;;;;;;;;;;17.79;57.03;99342.50;5071093;28;1299;-80
2020/12/29 10:19:10;;;;;;;;;;;;;;;17.86;57.22;99341.94;5052512;28;818;-74
2020/12/29 10:21:36;;;;;;;;;;;;;;;18.07;56.98;99338.63;5035728;28;1244;-72
2020/12/29 10:24:03;;;;;;;;;;;;;;;17.93;57.01;99345.78;5050793;28;743;-73
2020/12/29 10:26:29;;;;;;;;;;;;;;;17.94;57.35;99329.03;5031897;28;1251;-71
2020/12/29 10:28:55;;;;;;;;;;;;;;;17.85;57.51;99332.34;5047280;28;1159;-72
2020/12/29 10:31:21;;;;;;;;;;;;;;;17.89;57.62;99335.59;5068898;28;2008;-73
2020/12/29 10:33:48;;;;;;;;;;;;;;;17.84;57.66;99335.94;5068633;28;1138;-69
2020/12/29 10:36:14;;;;;;;;;;;;;;;17.91;58.11;99331.91;5049848;28;1076;-73
2020/12/29 10:38:42;;;;;;;;;;;;;;;18.06;60.09;99321.97;5049725;28;1171;-73
2020/12/29 10:41:09;;;;;;;;;;;;;;;18.09;60.05;99328.84;5072958;28;1501;-69
2020/12/29 10:43:35;;;;;;;;;;;;;;;17.95;60.59;99320.19;5065645;28;1842;-68
2020/12/29 10:46:03;;;;;;;;;;;;;;;18.00;61.08;99327.72;5012632;28;1339;-69
2020/12/29 10:48:34;;;;;;;;;;;;;;;17.99;61.10;99313.69;5058056;28;1235;-69
2020/12/29 10:51:00;;;;;;;;;;;;;;;18.03;61.18;99312.53;5069216;28;1981;-69
2020/12/29 10:53:27;;;;;;;;;;;;;;;18.07;61.08;99328.09;5068870;28;1233;-70
2020/12/29 10:55:53;;;;;;;;;;;;;;;18.08;60.88;99319.25;5069483;28;1051;-70
2020/12/29 10:58:19;;;;;;;;;;;;;;;18.08;60.92;99308.72;5071897;28;1238;-69
2020/12/29 11:00:48;;;;;;;;;;;;;;;18.14;60.75;99314.34;5050058;28;1422;-69
2020/12/29 11:03:14;;;;;;;;;;;;;;;18.15;60.68;99310.75;5067958;28;1248;-67
2020/12/29 11:05:41;;;;;;;;;;;;;;;18.17;60.49;99313.28;5068141;28;882;-69
2020/12/29 11:08:08;;;;;;;;;;;;;;;18.19;60.31;99308.72;5067755;28;1299;-69
2020/12/29 11:10:34;;;;;;;;;;;;;;;18.20;60.13;99313.88;5067796;28;1910;-68
2020/12/29 11:13:02;;;;;;;;;;;;;;;18.21;60.11;99315.53;5033209;28;1377;-70
2020/12/29 11:15:28;;;;;;;;;;;;;;;18.22;59.78;99314.59;5084504;28;1157;-70
2020/12/29 11:17:55;;;;;;;;;;;;;;;18.25;59.80;99306.44;5087464;28;1244;-70
2020/12/29 11:20:21;;;;;;;;;;;;;;;18.26;59.65;99294.13;5069186;28;940;-67
2020/12/29 11:22:47;;;;;;;;;;;;;;;18.28;59.68;99305.38;5087611;28;1236;-69
2020/12/29 11:25:13;;;;;;;;;;;;;;;18.30;59.54;99300.84;5087653;28;945;-68
2020/12/29 11:27:39;;;;;;;;;;;;;;;18.37;59.39;99305.50;5069250;28;1220;-71
2020/12/29 11:30:06;;;;;;;;;;;;;;;18.37;59.33;99302.88;5069255;28;1064;-70
2020/12/29 11:32:33;;;;;;;;;;;;;;;18.40;59.37;99304.41;5087686;28;1902;-68
2020/12/29 11:34:59;;;;;;;;;;;;;;;18.38;59.41;99290.53;5052963;28;1175;-70
2020/12/29 11:37:25;;;;;;;;;;;;;;;18.36;59.01;99301.19;5068731;28;1364;-70
2020/12/29 11:39:53;;;;;;;;;;;;;;;18.36;59.28;99300.38;5087586;28;1063;-70
2020/12/29 11:42:19;;;;;;;;;;;;;;;18.47;58.57;99284.53;5086499;28;1748;-71
2020/12/29 11:44:45;;;;;;;;;;;;;;;18.42;58.76;99287.50;5067227;28;1143;-70
2020/12/29 11:47:12;;;;;;;;;;;;;;;18.41;58.86;99282.38;5049078;28;1231;-70
2020/12/29 11:49:38;;;;;;;;;;;;;;;18.43;58.89;99272.53;5084038;28;1157;-70
2020/12/29 11:52:04;;;;;;;;;;;;;;;18.44;58.66;99282.97;5087532;28;1973;-70
2020/12/29 11:54:30;;;;;;;;;;;;;;;18.42;58.69;99291.97;5088092;28;840;-69
2020/12/29 11:56:57;;;;;;;;;;;;;;;18.43;58.54;99254.09;5087424;28;1283;-70
2020/12/29 11:59:23;;;;;;;;;;;;;;;18.44;58.61;99287.41;5087701;28;762;-70
2020/12/29 12:01:49;;;;;;;;;;;;;;;18.45;58.51;99270.66;5087206;28;1330;-71
2020/12/29 12:04:15;;;;;;;;;;;;;;;18.45;58.63;99275.91;5087243;28;754;-70
2020/12/29 12:06:45;;;;;;;;;;;;;;;18.46;58.45;99253.84;5087483;28;1361;-68
2020/12/29 12:09:12;;;;;;;;;;;;;;;18.47;58.44;99260.81;5069433;28;1185;-73
2020/12/29 12:11:38;;;;;;;;;;;;;;;18.48;58.36;99271.22;5069209;28;1914;-71
2020/12/29 12:14:04;;;;;;;;;;;;;;;18.46;58.54;99261.75;5087539;28;1071;-70
2020/12/29 12:16:36;;;;;;;;;;;;;;;18.46;58.47;99267.03;5087277;28;1283;-70
2020/12/29 12:19:03;;;;;;;;;;;;;;;18.49;58.33;99277.38;5087487;28;852;-73
2020/12/29 12:21:32;;;;;;;;;;;;;;;18.52;58.57;99274.50;5086674;28;1475;-73
2020/12/29 12:23:59;;;;;;;;;;;;;;;18.46;58.36;99277.56;5068344;28;1329;-72
2020/12/29 12:26:25;;;;;;;;;;;;;;;18.45;58.50;99281.19;5087597;28;1291;-71
2020/12/29 12:28:52;;;;;;;;;;;;;;;18.46;58.34;99288.13;5087063;28;798;-72
2020/12/29 12:31:18;;;;;;;;;;;;;;;18.44;58.38;99280.34;5069194;28;1998;-72
2020/12/29 12:33:45;;;;;;;;;;;;;;;18.44;58.49;99268.97;5090374;28;1339;-71
2020/12/29 12:36:14;;;;;;;;;;;;;;;18.43;58.54;99276.03;5092285;28;1235;-70
2020/12/29 12:38:41;;;;;;;;;;;;;;;18.43;58.50;99283.94;5091740;28;1220;-72
2020/12/29 12:41:10;;;;;;;;;;;;;;;18.41;58.54;99288.50;5092512;28;1051;-71
2020/12/29 12:43:37;;;;;;;;;;;;;;;18.42;58.33;99284.06;5073469;28;1248;-71
2020/12/29 12:46:06;;;;;;;;;;;;;;;18.44;58.37;99284.78;5092438;28;1035;-69
2020/12/29 12:48:32;;;;;;;;;;;;;;;18.42;58.34;99286.69;5073934;28;1268;-71
2020/12/29 12:50:59;;;;;;;;;;;;;;;18.43;58.35;99273.38;5073525;28;1967;-71
2020/12/29 12:53:28;;;;;;;;;;;;;;;18.42;58.27;99276.16;5091946;28;1228;-71
2020/12/29 12:55:54;;;;;;;;;;;;;;;18.42;58.20;99265.59;5073691;28;1119;-71
2020/12/29 12:58:20;;;;;;;;;;;;;;;18.45;58.29;99275.91;5092117;28;1212;-71
2020/12/29 13:00:49;;;;;;;;;;;;;;;18.43;58.14;99277.81;5092114;28;1125;-71